sensor_id;sensor_type;location;lat;lon;timestamp;P1;durP1;ratioP1;P2;durP2;ratioP2
42110;SDS011;27766;52.174;5.456;2023-05-20T00:00:10;8.13;;;3.65;;
42110;SDS011;27766;52.174;5.456;2023-05-20T00:02:40;6.43;;;3.42;;
42110;SDS011;27766;52.174;5.456;2023-05-20T00:05:08;6.18;;;3.47;;
42110;SDS011;27766;52.174;5.456;2023-05-20T00:07:35;8.60;;;2.97;;
42110;SDS011;27766;52.174;5.456;2023-05-20T00:10:02;7.45;;;3.53;;
42110;SDS011;27766;52.174;5.456;2023-05-20T00:12:30;9.88;;;2.92;;
42110;SDS011;27766;52.174;5.456;2023-05-20T00:14:57;6.43;;;3.50;;
42110;SDS011;27766;52.174;5.456;2023-05-20T00:17:24;6.35;;;3.55;;
42110;SDS011;27766;52.174;5.456;2023-05-20T00:19:53;9.00;;;3.35;;
42110;SDS011;27766;52.174;5.456;2023-05-20T00:22:21;6.57;;;3.70;;
42110;SDS011;27766;52.174;5.456;2023-05-20T00:24:48;7.20;;;3.30;;
42110;SDS011;27766;52.174;5.456;2023-05-20T00:27:15;6.63;;;3.30;;
42110;SDS011;27766;52.174;5.456;2023-05-20T00:29:43;10.32;;;3.22;;
42110;SDS011;27766;52.174;5.456;2023-05-20T00:32:10;6.95;;;4.22;;
42110;SDS011;27766;52.174;5.456;2023-05-20T00:34:37;4.00;;;3.28;;
42110;SDS011;27766;52.174;5.456;2023-05-20T00:37:04;5.45;;;3.25;;
42110;SDS011;27766;52.174;5.456;2023-05-20T00:39:31;8.43;;;3.85;;
42110;SDS011;27766;52.174;5.456;2023-05-20T00:41:59;6.93;;;3.88;;
42110;SDS011;27766;52.174;5.456;2023-05-20T00:44:28;9.48;;;3.50;;
42110;SDS011;27766;52.174;5.456;2023-05-20T00:46:55;6.18;;;3.40;;
42110;SDS011;27766;52.174;5.456;2023-05-20T00:49:22;4.97;;;3.50;;
42110;SDS011;27766;52.174;5.456;2023-05-20T00:51:50;7.93;;;3.75;;
42110;SDS011;27766;52.174;5.456;2023-05-20T00:54:17;6.65;;;3.28;;
42110;SDS011;27766;52.174;5.456;2023-05-20T00:56:45;9.10;;;3.83;;
42110;SDS011;27766;52.174;5.456;2023-05-20T00:59:13;5.55;;;3.42;;
42110;SDS011;27766;52.174;5.456;2023-05-20T01:01:42;8.55;;;4.30;;
42110;SDS011;27766;52.174;5.456;2023-05-20T01:04:10;4.80;;;2.95;;
42110;SDS011;27766;52.174;5.456;2023-05-20T01:06:37;8.43;;;3.90;;
42110;SDS011;27766;52.174;5.456;2023-05-20T01:09:04;5.22;;;3.13;;
42110;SDS011;27766;52.174;5.456;2023-05-20T01:11:33;13.00;;;4.15;;
42110;SDS011;27766;52.174;5.456;2023-05-20T01:14:05;8.80;;;3.97;;
42110;SDS011;27766;52.174;5.456;2023-05-20T01:16:34;6.80;;;4.25;;
42110;SDS011;27766;52.174;5.456;2023-05-20T01:19:05;6.35;;;3.70;;
42110;SDS011;27766;52.174;5.456;2023-05-20T01:22:00;6.85;;;3.63;;
42110;SDS011;27766;52.174;5.456;2023-05-20T01:24:31;4.43;;;3.70;;
42110;SDS011;27766;52.174;5.456;2023-05-20T01:26:58;11.77;;;4.10;;
42110;SDS011;27766;52.174;5.456;2023-05-20T01:29:25;8.60;;;4.55;;
42110;SDS011;27766;52.174;5.456;2023-05-20T01:31:52;6.63;;;3.50;;
42110;SDS011;27766;52.174;5.456;2023-05-20T01:34:22;7.43;;;4.18;;
42110;SDS011;27766;52.174;5.456;2023-05-20T01:36:51;8.02;;;4.00;;
42110;SDS011;27766;52.174;5.456;2023-05-20T01:39:19;6.28;;;4.50;;
42110;SDS011;27766;52.174;5.456;2023-05-20T01:41:47;10.32;;;4.18;;
42110;SDS011;27766;52.174;5.456;2023-05-20T01:44:16;8.40;;;4.30;;
42110;SDS011;27766;52.174;5.456;2023-05-20T01:46:47;9.77;;;4.20;;
42110;SDS011;27766;52.174;5.456;2023-05-20T01:49:15;7.43;;;4.18;;
42110;SDS011;27766;52.174;5.456;2023-05-20T01:51:42;8.40;;;4.68;;
42110;SDS011;27766;52.174;5.456;2023-05-20T01:54:09;7.35;;;4.20;;
42110;SDS011;27766;52.174;5.456;2023-05-20T01:56:37;7.90;;;4.13;;
42110;SDS011;27766;52.174;5.456;2023-05-20T01:59:04;5.72;;;4.28;;
42110;SDS011;27766;52.174;5.456;2023-05-20T02:01:31;7.80;;;4.35;;
42110;SDS011;27766;52.174;5.456;2023-05-20T02:03:58;6.05;;;3.85;;
42110;SDS011;27766;52.174;5.456;2023-05-20T02:06:26;14.05;;;4.32;;
42110;SDS011;27766;52.174;5.456;2023-05-20T02:08:53;10.75;;;4.85;;
42110;SDS011;27766;52.174;5.456;2023-05-20T02:11:20;6.53;;;4.05;;
42110;SDS011;27766;52.174;5.456;2023-05-20T02:13:48;5.75;;;4.25;;
42110;SDS011;27766;52.174;5.456;2023-05-20T02:16:17;6.40;;;4.13;;
42110;SDS011;27766;52.174;5.456;2023-05-20T02:18:44;5.75;;;4.40;;
42110;SDS011;27766;52.174;5.456;2023-05-20T02:21:14;7.57;;;4.53;;
42110;SDS011;27766;52.174;5.456;2023-05-20T02:23:43;7.38;;;4.13;;
42110;SDS011;27766;52.174;5.456;2023-05-20T02:26:10;6.70;;;3.97;;
42110;SDS011;27766;52.174;5.456;2023-05-20T02:28:38;8.27;;;4.95;;
42110;SDS011;27766;52.174;5.456;2023-05-20T02:31:09;13.65;;;4.07;;
42110;SDS011;27766;52.174;5.456;2023-05-20T02:33:36;11.65;;;4.18;;
42110;SDS011;27766;52.174;5.456;2023-05-20T02:36:04;10.13;;;4.85;;
42110;SDS011;27766;52.174;5.456;2023-05-20T02:38:31;9.50;;;4.80;;
42110;SDS011;27766;52.174;5.456;2023-05-20T02:40:58;9.52;;;5.07;;
42110;SDS011;27766;52.174;5.456;2023-05-20T02:43:25;7.85;;;4.43;;
42110;SDS011;27766;52.174;5.456;2023-05-20T02:45:53;6.00;;;4.43;;
42110;SDS011;27766;52.174;5.456;2023-05-20T02:48:20;13.48;;;6.05;;
42110;SDS011;27766;52.174;5.456;2023-05-20T02:50:47;10.18;;;4.40;;
42110;SDS011;27766;52.174;5.456;2023-05-20T02:53:14;6.78;;;4.82;;
42110;SDS011;27766;52.174;5.456;2023-05-20T02:55:45;6.32;;;4.63;;
42110;SDS011;27766;52.174;5.456;2023-05-20T02:58:16;6.30;;;4.85;;
42110;SDS011;27766;52.174;5.456;2023-05-20T03:00:43;11.73;;;5.03;;
42110;SDS011;27766;52.174;5.456;2023-05-20T03:03:11;7.03;;;5.22;;
42110;SDS011;27766;52.174;5.456;2023-05-20T03:05:39;7.47;;;5.18;;
42110;SDS011;27766;52.174;5.456;2023-05-20T03:08:09;6.18;;;4.30;;
42110;SDS011;27766;52.174;5.456;2023-05-20T03:10:37;8.10;;;4.60;;
42110;SDS011;27766;52.174;5.456;2023-05-20T03:13:05;10.35;;;5.22;;
42110;SDS011;27766;52.174;5.456;2023-05-20T03:15:35;7.47;;;5.15;;
42110;SDS011;27766;52.174;5.456;2023-05-20T03:18:03;8.93;;;5.10;;
42110;SDS011;27766;52.174;5.456;2023-05-20T03:20:31;7.28;;;4.97;;
42110;SDS011;27766;52.174;5.456;2023-05-20T03:22:58;8.88;;;5.30;;
42110;SDS011;27766;52.174;5.456;2023-05-20T03:25:26;8.27;;;5.03;;
42110;SDS011;27766;52.174;5.456;2023-05-20T03:27:54;11.65;;;5.38;;
42110;SDS011;27766;52.174;5.456;2023-05-20T03:30:21;12.27;;;5.72;;
42110;SDS011;27766;52.174;5.456;2023-05-20T03:32:49;8.02;;;4.50;;
42110;SDS011;27766;52.174;5.456;2023-05-20T03:35:16;10.40;;;4.90;;
42110;SDS011;27766;52.174;5.456;2023-05-20T03:37:44;7.88;;;5.18;;
42110;SDS011;27766;52.174;5.456;2023-05-20T03:40:11;7.93;;;5.55;;
42110;SDS011;27766;52.174;5.456;2023-05-20T03:42:39;8.73;;;4.97;;
42110;SDS011;27766;52.174;5.456;2023-05-20T03:45:06;9.48;;;5.50;;
42110;SDS011;27766;52.174;5.456;2023-05-20T03:47:34;5.82;;;4.65;;
42110;SDS011;27766;52.174;5.456;2023-05-20T03:50:01;7.40;;;4.78;;
42110;SDS011;27766;52.174;5.456;2023-05-20T03:52:28;8.20;;;4.15;;
42110;SDS011;27766;52.174;5.456;2023-05-20T03:54:55;10.95;;;5.47;;
42110;SDS011;27766;52.174;5.456;2023-05-20T03:57:23;8.25;;;5.22;;
42110;SDS011;27766;52.174;5.456;2023-05-20T03:59:50;9.32;;;5.72;;
42110;SDS011;27766;52.174;5.456;2023-05-20T04:02:17;8.32;;;5.50;;
42110;SDS011;27766;52.174;5.456;2023-05-20T04:04:45;8.27;;;5.13;;
42110;SDS011;27766;52.174;5.456;2023-05-20T04:07:12;9.50;;;4.97;;
42110;SDS011;27766;52.174;5.456;2023-05-20T04:09:40;10.02;;;4.93;;
42110;SDS011;27766;52.174;5.456;2023-05-20T04:12:08;7.93;;;5.18;;
42110;SDS011;27766;52.174;5.456;2023-05-20T04:14:35;6.68;;;5.00;;
42110;SDS011;27766;52.174;5.456;2023-05-20T04:17:02;9.93;;;4.78;;
42110;SDS011;27766;52.174;5.456;2023-05-20T04:19:31;10.65;;;5.28;;
42110;SDS011;27766;52.174;5.456;2023-05-20T04:21:59;8.82;;;5.00;;
42110;SDS011;27766;52.174;5.456;2023-05-20T04:24:27;7.75;;;5.05;;
42110;SDS011;27766;52.174;5.456;2023-05-20T04:26:54;10.20;;;4.70;;
42110;SDS011;27766;52.174;5.456;2023-05-20T04:29:21;12.98;;;5.68;;
42110;SDS011;27766;52.174;5.456;2023-05-20T04:31:48;7.45;;;4.82;;
42110;SDS011;27766;52.174;5.456;2023-05-20T04:34:18;11.05;;;5.68;;
42110;SDS011;27766;52.174;5.456;2023-05-20T04:36:52;14.15;;;5.07;;
42110;SDS011;27766;52.174;5.456;2023-05-20T04:39:19;10.95;;;4.35;;
42110;SDS011;27766;52.174;5.456;2023-05-20T04:41:47;7.20;;;5.30;;
42110;SDS011;27766;52.174;5.456;2023-05-20T04:44:15;8.25;;;5.25;;
42110;SDS011;27766;52.174;5.456;2023-05-20T04:46:42;6.53;;;4.78;;
42110;SDS011;27766;52.174;5.456;2023-05-20T04:49:10;13.55;;;4.95;;
42110;SDS011;27766;52.174;5.456;2023-05-20T04:51:38;7.85;;;4.28;;
42110;SDS011;27766;52.174;5.456;2023-05-20T04:54:08;8.98;;;5.22;;
42110;SDS011;27766;52.174;5.456;2023-05-20T04:56:35;7.03;;;4.13;;
42110;SDS011;27766;52.174;5.456;2023-05-20T04:59:03;7.95;;;4.97;;
42110;SDS011;27766;52.174;5.456;2023-05-20T05:01:30;6.07;;;4.45;;
42110;SDS011;27766;52.174;5.456;2023-05-20T05:03:57;8.25;;;4.75;;
42110;SDS011;27766;52.174;5.456;2023-05-20T05:06:24;7.68;;;4.40;;
42110;SDS011;27766;52.174;5.456;2023-05-20T05:08:51;7.85;;;4.60;;
42110;SDS011;27766;52.174;5.456;2023-05-20T05:11:18;6.32;;;4.25;;
42110;SDS011;27766;52.174;5.456;2023-05-20T05:13:46;7.90;;;4.53;;
42110;SDS011;27766;52.174;5.456;2023-05-20T05:16:14;5.78;;;4.63;;
42110;SDS011;27766;52.174;5.456;2023-05-20T05:18:41;7.72;;;4.13;;
42110;SDS011;27766;52.174;5.456;2023-05-20T05:21:09;8.20;;;4.68;;
42110;SDS011;27766;52.174;5.456;2023-05-20T05:23:36;7.70;;;4.38;;
42110;SDS011;27766;52.174;5.456;2023-05-20T05:26:04;8.45;;;4.72;;
42110;SDS011;27766;52.174;5.456;2023-05-20T05:28:31;8.73;;;4.70;;
42110;SDS011;27766;52.174;5.456;2023-05-20T05:30:58;6.20;;;3.92;;
42110;SDS011;27766;52.174;5.456;2023-05-20T05:33:25;5.80;;;4.40;;
42110;SDS011;27766;52.174;5.456;2023-05-20T05:35:52;9.93;;;4.50;;
42110;SDS011;27766;52.174;5.456;2023-05-20T05:38:20;8.35;;;4.32;;
42110;SDS011;27766;52.174;5.456;2023-05-20T05:40:47;6.68;;;4.13;;
42110;SDS011;27766;52.174;5.456;2023-05-20T05:43:14;6.68;;;4.00;;
42110;SDS011;27766;52.174;5.456;2023-05-20T05:45:44;7.78;;;4.18;;
42110;SDS011;27766;52.174;5.456;2023-05-20T05:48:12;8.10;;;4.22;;
42110;SDS011;27766;52.174;5.456;2023-05-20T05:50:42;6.72;;;4.20;;
42110;SDS011;27766;52.174;5.456;2023-05-20T05:53:11;13.93;;;4.10;;
42110;SDS011;27766;52.174;5.456;2023-05-20T05:55:42;8.68;;;3.85;;
42110;SDS011;27766;52.174;5.456;2023-05-20T05:58:13;5.63;;;3.65;;
42110;SDS011;27766;52.174;5.456;2023-05-20T06:00:40;6.90;;;3.85;;
42110;SDS011;27766;52.174;5.456;2023-05-20T06:03:08;7.85;;;3.55;;
42110;SDS011;27766;52.174;5.456;2023-05-20T06:05:35;6.82;;;4.25;;
42110;SDS011;27766;52.174;5.456;2023-05-20T06:08:03;7.82;;;4.28;;
42110;SDS011;27766;52.174;5.456;2023-05-20T06:10:30;3.88;;;3.05;;
42110;SDS011;27766;52.174;5.456;2023-05-20T06:12:58;7.45;;;3.97;;
42110;SDS011;27766;52.174;5.456;2023-05-20T06:15:25;4.85;;;3.50;;
42110;SDS011;27766;52.174;5.456;2023-05-20T06:17:52;7.53;;;3.72;;
42110;SDS011;27766;52.174;5.456;2023-05-20T06:20:19;4.85;;;3.53;;
42110;SDS011;27766;52.174;5.456;2023-05-20T06:22:46;5.57;;;3.58;;
42110;SDS011;27766;52.174;5.456;2023-05-20T06:25:14;7.20;;;3.50;;
42110;SDS011;27766;52.174;5.456;2023-05-20T06:27:41;8.65;;;3.90;;
42110;SDS011;27766;52.174;5.456;2023-05-20T06:30:09;8.07;;;3.60;;
42110;SDS011;27766;52.174;5.456;2023-05-20T06:32:36;3.63;;;2.47;;
42110;SDS011;27766;52.174;5.456;2023-05-20T06:35:04;5.78;;;3.20;;
42110;SDS011;27766;52.174;5.456;2023-05-20T06:37:31;5.65;;;3.10;;
42110;SDS011;27766;52.174;5.456;2023-05-20T06:39:59;8.40;;;3.22;;
42110;SDS011;27766;52.174;5.456;2023-05-20T06:42:26;3.95;;;2.92;;
42110;SDS011;27766;52.174;5.456;2023-05-20T06:44:53;4.78;;;2.95;;
42110;SDS011;27766;52.174;5.456;2023-05-20T06:47:20;8.55;;;3.10;;
42110;SDS011;27766;52.174;5.456;2023-05-20T06:49:47;4.68;;;2.85;;
42110;SDS011;27766;52.174;5.456;2023-05-20T06:52:14;8.40;;;3.03;;
42110;SDS011;27766;52.174;5.456;2023-05-20T06:54:43;4.38;;;2.90;;
42110;SDS011;27766;52.174;5.456;2023-05-20T06:57:10;5.18;;;2.55;;
42110;SDS011;27766;52.174;5.456;2023-05-20T06:59:38;5.15;;;3.10;;
42110;SDS011;27766;52.174;5.456;2023-05-20T07:02:06;4.30;;;2.60;;
42110;SDS011;27766;52.174;5.456;2023-05-20T07:04:33;4.18;;;2.78;;
42110;SDS011;27766;52.174;5.456;2023-05-20T07:07:01;4.45;;;2.75;;
42110;SDS011;27766;52.174;5.456;2023-05-20T07:09:28;5.35;;;2.40;;
42110;SDS011;27766;52.174;5.456;2023-05-20T07:11:55;8.43;;;2.85;;
42110;SDS011;27766;52.174;5.456;2023-05-20T07:14:22;3.83;;;2.50;;
42110;SDS011;27766;52.174;5.456;2023-05-20T07:16:49;5.68;;;2.10;;
42110;SDS011;27766;52.174;5.456;2023-05-20T07:19:17;5.40;;;3.05;;
42110;SDS011;27766;52.174;5.456;2023-05-20T07:21:44;3.20;;;2.40;;
42110;SDS011;27766;52.174;5.456;2023-05-20T07:24:12;3.83;;;2.25;;
42110;SDS011;27766;52.174;5.456;2023-05-20T07:26:40;9.70;;;2.25;;
42110;SDS011;27766;52.174;5.456;2023-05-20T07:29:07;5.30;;;1.95;;
42110;SDS011;27766;52.174;5.456;2023-05-20T07:31:35;3.13;;;2.40;;
42110;SDS011;27766;52.174;5.456;2023-05-20T07:34:03;4.30;;;2.58;;
42110;SDS011;27766;52.174;5.456;2023-05-20T07:36:30;3.33;;;2.03;;
42110;SDS011;27766;52.174;5.456;2023-05-20T07:38:58;4.03;;;2.10;;
42110;SDS011;27766;52.174;5.456;2023-05-20T07:41:36;4.25;;;1.88;;
42110;SDS011;27766;52.174;5.456;2023-05-20T07:44:04;3.28;;;1.95;;
42110;SDS011;27766;52.174;5.456;2023-05-20T07:46:31;11.93;;;1.75;;
42110;SDS011;27766;52.174;5.456;2023-05-20T07:48:59;4.65;;;1.58;;
42110;SDS011;27766;52.174;5.456;2023-05-20T07:51:26;3.47;;;1.58;;
42110;SDS011;27766;52.174;5.456;2023-05-20T07:53:53;6.45;;;1.63;;
42110;SDS011;27766;52.174;5.456;2023-05-20T07:56:20;1.88;;;1.33;;
42110;SDS011;27766;52.174;5.456;2023-05-20T07:58:52;1.70;;;1.10;;
42110;SDS011;27766;52.174;5.456;2023-05-20T08:01:20;4.57;;;1.52;;
42110;SDS011;27766;52.174;5.456;2023-05-20T08:03:47;1.77;;;1.23;;
42110;SDS011;27766;52.174;5.456;2023-05-20T08:06:15;3.35;;;1.38;;
42110;SDS011;27766;52.174;5.456;2023-05-20T08:08:42;1.42;;;1.20;;
42110;SDS011;27766;52.174;5.456;2023-05-20T08:11:09;1.63;;;1.02;;
42110;SDS011;27766;52.174;5.456;2023-05-20T08:13:37;3.25;;;1.55;;
42110;SDS011;27766;52.174;5.456;2023-05-20T08:16:04;2.03;;;1.38;;
42110;SDS011;27766;52.174;5.456;2023-05-20T08:18:33;1.83;;;1.20;;
42110;SDS011;27766;52.174;5.456;2023-05-20T08:21:02;4.47;;;1.40;;
42110;SDS011;27766;52.174;5.456;2023-05-20T08:23:31;7.07;;;1.45;;
42110;SDS011;27766;52.174;5.456;2023-05-20T08:26:02;1.60;;;1.10;;
42110;SDS011;27766;52.174;5.456;2023-05-20T08:28:30;2.03;;;1.17;;
42110;SDS011;27766;52.174;5.456;2023-05-20T08:30:57;2.92;;;1.55;;
42110;SDS011;27766;52.174;5.456;2023-05-20T08:33:27;2.17;;;1.08;;
42110;SDS011;27766;52.174;5.456;2023-05-20T08:35:54;1.58;;;0.85;;
42110;SDS011;27766;52.174;5.456;2023-05-20T08:38:22;6.18;;;1.23;;
42110;SDS011;27766;52.174;5.456;2023-05-20T08:40:55;2.60;;;1.35;;
42110;SDS011;27766;52.174;5.456;2023-05-20T08:43:23;1.77;;;1.10;;
42110;SDS011;27766;52.174;5.456;2023-05-20T08:45:51;3.17;;;1.42;;
42110;SDS011;27766;52.174;5.456;2023-05-20T08:48:18;2.35;;;1.40;;
42110;SDS011;27766;52.174;5.456;2023-05-20T08:50:49;7.60;;;1.10;;
42110;SDS011;27766;52.174;5.456;2023-05-20T08:53:17;1.20;;;0.90;;
42110;SDS011;27766;52.174;5.456;2023-05-20T08:55:51;5.00;;;1.25;;
42110;SDS011;27766;52.174;5.456;2023-05-20T08:58:27;9.35;;;1.45;;
42110;SDS011;27766;52.174;5.456;2023-05-20T09:01:01;1.88;;;1.35;;
42110;SDS011;27766;52.174;5.456;2023-05-20T09:03:28;1.70;;;1.23;;
42110;SDS011;27766;52.174;5.456;2023-05-20T09:06:03;2.53;;;1.25;;
42110;SDS011;27766;52.174;5.456;2023-05-20T09:08:31;29.40;;;3.20;;
42110;SDS011;27766;52.174;5.456;2023-05-20T09:10:59;2.70;;;1.23;;
42110;SDS011;27766;52.174;5.456;2023-05-20T09:13:26;3.35;;;0.98;;
42110;SDS011;27766;52.174;5.456;2023-05-20T09:15:58;2.35;;;1.25;;
42110;SDS011;27766;52.174;5.456;2023-05-20T09:18:27;3.40;;;1.33;;
42110;SDS011;27766;52.174;5.456;2023-05-20T09:20:55;1.85;;;1.08;;
42110;SDS011;27766;52.174;5.456;2023-05-20T09:23:22;5.15;;;1.33;;
42110;SDS011;27766;52.174;5.456;2023-05-20T09:25:53;1.85;;;1.35;;
42110;SDS011;27766;52.174;5.456;2023-05-20T09:28:21;2.85;;;1.42;;
42110;SDS011;27766;52.174;5.456;2023-05-20T09:30:56;4.68;;;1.40;;
42110;SDS011;27766;52.174;5.456;2023-05-20T09:33:28;2.05;;;1.27;;
42110;SDS011;27766;52.174;5.456;2023-05-20T09:36:30;4.03;;;1.17;;
42110;SDS011;27766;52.174;5.456;2023-05-20T09:38:51;2.70;;;1.05;;
42110;SDS011;27766;52.174;5.456;2023-05-20T09:41:19;1.98;;;1.25;;
42110;SDS011;27766;52.174;5.456;2023-05-20T09:43:49;3.10;;;1.23;;
42110;SDS011;27766;52.174;5.456;2023-05-20T09:46:19;5.10;;;1.25;;
42110;SDS011;27766;52.174;5.456;2023-05-20T09:48:47;3.42;;;1.38;;
42110;SDS011;27766;52.174;5.456;2023-05-20T09:51:14;2.13;;;1.25;;
42110;SDS011;27766;52.174;5.456;2023-05-20T09:53:45;2.13;;;1.27;;
42110;SDS011;27766;52.174;5.456;2023-05-20T09:56:13;3.35;;;1.15;;
42110;SDS011;27766;52.174;5.456;2023-05-20T09:58:41;4.00;;;1.20;;
42110;SDS011;27766;52.174;5.456;2023-05-20T10:01:11;2.17;;;1.50;;
42110;SDS011;27766;52.174;5.456;2023-05-20T10:03:39;5.20;;;1.63;;
42110;SDS011;27766;52.174;5.456;2023-05-20T10:06:14;1.67;;;1.13;;
42110;SDS011;27766;52.174;5.456;2023-05-20T10:19:40;2.08;;;1.33;;
42110;SDS011;27766;52.174;5.456;2023-05-20T10:22:09;1.95;;;1.10;;
42110;SDS011;27766;52.174;5.456;2023-05-20T10:24:42;2.45;;;1.48;;
42110;SDS011;27766;52.174;5.456;2023-05-20T10:27:11;1.95;;;1.08;;
42110;SDS011;27766;52.174;5.456;2023-05-20T10:29:59;8.32;;;1.20;;
42110;SDS011;27766;52.174;5.456;2023-05-20T10:32:27;4.30;;;1.30;;
42110;SDS011;27766;52.174;5.456;2023-05-20T10:35:07;2.17;;;1.30;;
42110;SDS011;27766;52.174;5.456;2023-05-20T10:37:40;2.85;;;1.17;;
42110;SDS011;27766;52.174;5.456;2023-05-20T10:40:09;3.17;;;1.53;;
42110;SDS011;27766;52.174;5.456;2023-05-20T10:42:39;2.17;;;1.25;;
42110;SDS011;27766;52.174;5.456;2023-05-20T10:45:06;2.75;;;1.25;;
42110;SDS011;27766;52.174;5.456;2023-05-20T10:47:35;2.50;;;1.20;;
42110;SDS011;27766;52.174;5.456;2023-05-20T10:50:02;2.22;;;1.40;;
42110;SDS011;27766;52.174;5.456;2023-05-20T10:52:38;2.63;;;1.67;;
42110;SDS011;27766;52.174;5.456;2023-05-20T10:55:05;5.43;;;1.40;;
42110;SDS011;27766;52.174;5.456;2023-05-20T10:57:33;2.22;;;1.30;;
42110;SDS011;27766;52.174;5.456;2023-05-20T11:00:00;2.28;;;1.40;;
42110;SDS011;27766;52.174;5.456;2023-05-20T11:02:28;3.85;;;1.42;;
42110;SDS011;27766;52.174;5.456;2023-05-20T11:04:55;2.53;;;1.23;;
42110;SDS011;27766;52.174;5.456;2023-05-20T11:07:29;2.47;;;1.20;;
42110;SDS011;27766;52.174;5.456;2023-05-20T11:09:57;5.35;;;1.48;;
42110;SDS011;27766;52.174;5.456;2023-05-20T11:12:25;3.80;;;1.42;;
42110;SDS011;27766;52.174;5.456;2023-05-20T11:14:53;3.75;;;1.52;;
42110;SDS011;27766;52.174;5.456;2023-05-20T11:17:21;9.57;;;1.40;;
42110;SDS011;27766;52.174;5.456;2023-05-20T11:19:48;2.50;;;1.63;;
42110;SDS011;27766;52.174;5.456;2023-05-20T11:22:16;2.63;;;1.30;;
42110;SDS011;27766;52.174;5.456;2023-05-20T11:24:43;4.03;;;1.13;;
42110;SDS011;27766;52.174;5.456;2023-05-20T11:27:10;2.78;;;1.35;;
42110;SDS011;27766;52.174;5.456;2023-05-20T11:29:38;2.28;;;1.50;;
42110;SDS011;27766;52.174;5.456;2023-05-20T11:32:06;3.03;;;1.60;;
42110;SDS011;27766;52.174;5.456;2023-05-20T11:34:34;1.52;;;1.08;;
42110;SDS011;27766;52.174;5.456;2023-05-20T11:37:09;1.42;;;1.15;;
42110;SDS011;27766;52.174;5.456;2023-05-20T11:39:37;3.90;;;1.35;;
42110;SDS011;27766;52.174;5.456;2023-05-20T11:42:04;3.90;;;1.40;;
42110;SDS011;27766;52.174;5.456;2023-05-20T11:44:32;2.38;;;1.30;;
42110;SDS011;27766;52.174;5.456;2023-05-20T11:47:00;2.15;;;1.38;;
42110;SDS011;27766;52.174;5.456;2023-05-20T11:49:29;3.85;;;1.40;;
42110;SDS011;27766;52.174;5.456;2023-05-20T11:51:56;4.13;;;1.50;;
42110;SDS011;27766;52.174;5.456;2023-05-20T11:54:24;1.88;;;1.05;;
42110;SDS011;27766;52.174;5.456;2023-05-20T11:56:53;2.78;;;1.20;;
42110;SDS011;27766;52.174;5.456;2023-05-20T11:59:22;2.90;;;1.10;;
42110;SDS011;27766;52.174;5.456;2023-05-20T12:01:50;2.90;;;1.40;;
42110;SDS011;27766;52.174;5.456;2023-05-20T12:04:17;2.13;;;1.40;;
42110;SDS011;27766;52.174;5.456;2023-05-20T12:06:45;2.22;;;1.13;;
42110;SDS011;27766;52.174;5.456;2023-05-20T12:09:13;1.27;;;1.00;;
42110;SDS011;27766;52.174;5.456;2023-05-20T12:11:40;1.73;;;1.20;;
42110;SDS011;27766;52.174;5.456;2023-05-20T12:14:10;2.20;;;0.80;;
42110;SDS011;27766;52.174;5.456;2023-05-20T12:16:38;2.38;;;1.30;;
42110;SDS011;27766;52.174;5.456;2023-05-20T12:19:06;2.13;;;1.30;;
42110;SDS011;27766;52.174;5.456;2023-05-20T12:21:34;1.60;;;0.90;;
42110;SDS011;27766;52.174;5.456;2023-05-20T12:24:02;5.20;;;1.00;;
42110;SDS011;27766;52.174;5.456;2023-05-20T12:26:31;4.55;;;1.48;;
42110;SDS011;27766;52.174;5.456;2023-05-20T12:28:58;1.38;;;1.20;;
42110;SDS011;27766;52.174;5.456;2023-05-20T12:31:26;1.30;;;1.08;;
42110;SDS011;27766;52.174;5.456;2023-05-20T12:33:53;4.50;;;1.30;;
42110;SDS011;27766;52.174;5.456;2023-05-20T12:36:20;1.73;;;1.10;;
42110;SDS011;27766;52.174;5.456;2023-05-20T12:38:47;2.35;;;1.40;;
42110;SDS011;27766;52.174;5.456;2023-05-20T12:41:15;3.75;;;1.48;;
42110;SDS011;27766;52.174;5.456;2023-05-20T12:43:42;1.75;;;1.13;;
42110;SDS011;27766;52.174;5.456;2023-05-20T12:46:09;5.45;;;1.15;;
42110;SDS011;27766;52.174;5.456;2023-05-20T12:48:37;1.52;;;1.10;;
42110;SDS011;27766;52.174;5.456;2023-05-20T12:51:06;1.88;;;1.05;;
42110;SDS011;27766;52.174;5.456;2023-05-20T12:53:33;4.55;;;1.02;;
42110;SDS011;27766;52.174;5.456;2023-05-20T12:56:01;2.20;;;1.30;;
42110;SDS011;27766;52.174;5.456;2023-05-20T12:58:30;2.15;;;1.25;;
42110;SDS011;27766;52.174;5.456;2023-05-20T13:00:57;3.00;;;1.40;;
42110;SDS011;27766;52.174;5.456;2023-05-20T13:03:24;1.85;;;1.20;;
42110;SDS011;27766;52.174;5.456;2023-05-20T13:05:52;2.22;;;1.30;;
42110;SDS011;27766;52.174;5.456;2023-05-20T13:08:19;2.42;;;1.10;;
42110;SDS011;27766;52.174;5.456;2023-05-20T13:10:46;5.85;;;1.38;;
42110;SDS011;27766;52.174;5.456;2023-05-20T13:13:13;3.63;;;1.50;;
42110;SDS011;27766;52.174;5.456;2023-05-20T13:18:15;2.60;;;1.00;;
42110;SDS011;27766;52.174;5.456;2023-05-20T13:20:43;3.08;;;1.35;;
42110;SDS011;27766;52.174;5.456;2023-05-20T13:23:10;2.00;;;1.20;;
42110;SDS011;27766;52.174;5.456;2023-05-20T13:25:38;4.82;;;1.20;;
42110;SDS011;27766;52.174;5.456;2023-05-20T13:28:06;1.80;;;1.02;;
42110;SDS011;27766;52.174;5.456;2023-05-20T13:30:33;1.98;;;0.95;;
42110;SDS011;27766;52.174;5.456;2023-05-20T13:33:01;1.48;;;1.20;;
42110;SDS011;27766;52.174;5.456;2023-05-20T13:35:28;2.58;;;0.95;;
42110;SDS011;27766;52.174;5.456;2023-05-20T13:37:55;1.45;;;1.20;;
42110;SDS011;27766;52.174;5.456;2023-05-20T13:40:23;2.80;;;1.10;;
42110;SDS011;27766;52.174;5.456;2023-05-20T13:42:50;3.20;;;1.20;;
42110;SDS011;27766;52.174;5.456;2023-05-20T13:45:17;1.85;;;0.98;;
42110;SDS011;27766;52.174;5.456;2023-05-20T13:47:45;2.15;;;1.00;;
42110;SDS011;27766;52.174;5.456;2023-05-20T13:50:13;2.58;;;0.90;;
42110;SDS011;27766;52.174;5.456;2023-05-20T13:52:40;3.58;;;1.40;;
42110;SDS011;27766;52.174;5.456;2023-05-20T13:55:07;2.08;;;0.98;;
42110;SDS011;27766;52.174;5.456;2023-05-20T13:57:34;5.60;;;1.20;;
42110;SDS011;27766;52.174;5.456;2023-05-20T14:00:02;5.13;;;1.30;;
42110;SDS011;27766;52.174;5.456;2023-05-20T14:02:30;2.33;;;1.20;;
42110;SDS011;27766;52.174;5.456;2023-05-20T14:04:57;1.73;;;0.90;;
42110;SDS011;27766;52.174;5.456;2023-05-20T14:07:24;1.77;;;1.08;;
42110;SDS011;27766;52.174;5.456;2023-05-20T14:09:52;3.28;;;1.10;;
42110;SDS011;27766;52.174;5.456;2023-05-20T14:12:19;2.03;;;0.85;;
42110;SDS011;27766;52.174;5.456;2023-05-20T14:14:49;4.38;;;1.67;;
42110;SDS011;27766;52.174;5.456;2023-05-20T14:17:16;3.38;;;1.02;;
42110;SDS011;27766;52.174;5.456;2023-05-20T14:19:44;1.30;;;0.90;;
42110;SDS011;27766;52.174;5.456;2023-05-20T14:22:11;1.10;;;0.90;;
42110;SDS011;27766;52.174;5.456;2023-05-20T14:24:40;1.60;;;1.10;;
42110;SDS011;27766;52.174;5.456;2023-05-20T14:27:09;7.65;;;0.80;;
42110;SDS011;27766;52.174;5.456;2023-05-20T14:29:37;2.17;;;1.17;;
42110;SDS011;27766;52.174;5.456;2023-05-20T14:32:04;3.65;;;1.50;;
42110;SDS011;27766;52.174;5.456;2023-05-20T14:34:31;1.45;;;0.93;;
42110;SDS011;27766;52.174;5.456;2023-05-20T14:36:58;1.73;;;1.10;;
42110;SDS011;27766;52.174;5.456;2023-05-20T14:39:31;1.10;;;0.83;;
42110;SDS011;27766;52.174;5.456;2023-05-20T14:41:58;1.90;;;0.90;;
42110;SDS011;27766;52.174;5.456;2023-05-20T14:44:25;1.38;;;0.90;;
42110;SDS011;27766;52.174;5.456;2023-05-20T14:46:52;1.70;;;1.10;;
42110;SDS011;27766;52.174;5.456;2023-05-20T14:49:20;1.55;;;1.08;;
42110;SDS011;27766;52.174;5.456;2023-05-20T14:51:47;3.85;;;1.20;;
42110;SDS011;27766;52.174;5.456;2023-05-20T14:54:16;1.02;;;0.75;;
42110;SDS011;27766;52.174;5.456;2023-05-20T14:56:44;13.10;;;1.10;;
42110;SDS011;27766;52.174;5.456;2023-05-20T14:59:14;1.10;;;0.80;;
42110;SDS011;27766;52.174;5.456;2023-05-20T15:01:42;2.17;;;0.88;;
42110;SDS011;27766;52.174;5.456;2023-05-20T15:04:10;2.13;;;1.10;;